sensor_id;sensor_type;location;lat;lon;timestamp;pressure;altitude;pressure_sealevel;temperature;humidity
19112;BME280;9688;51.906;8.376;2023-01-31T00:00:29;101354.91;;;6.20;91.72
19112;BME280;9688;51.906;8.376;2023-01-31T00:03:15;101349.69;;;6.19;91.35
19112;BME280;9688;51.906;8.376;2023-01-31T00:06:17;101352.31;;;6.17;91.92
19112;BME280;9688;51.906;8.376;2023-01-31T00:09:04;101347.06;;;6.17;91.61
19112;BME280;9688;51.906;8.376;2023-01-31T00:11:51;101351.50;;;6.14;91.90
19112;BME280;9688;51.906;8.376;2023-01-31T00:14:37;101360.22;;;6.14;91.71
19112;BME280;9688;51.906;8.376;2023-01-31T00:17:22;101360.22;;;6.16;91.35
19112;BME280;9688;51.906;8.376;2023-01-31T00:20:09;101359.34;;;6.18;91.71
19112;BME280;9688;51.906;8.376;2023-01-31T00:22:55;101365.44;;;6.17;91.61
19112;BME280;9688;51.906;8.376;2023-01-31T00:25:41;101356.75;;;6.14;91.86
19112;BME280;9688;51.906;8.376;2023-01-31T00:28:28;101357.63;;;6.11;91.80
19112;BME280;9688;51.906;8.376;2023-01-31T00:31:15;101358.50;;;6.13;91.82
19112;BME280;9688;51.906;8.376;2023-01-31T00:34:02;101360.25;;;6.11;91.87
19112;BME280;9688;51.906;8.376;2023-01-31T00:36:48;101362.91;;;6.07;91.70
19112;BME280;9688;51.906;8.376;2023-01-31T00:39:33;101363.84;;;6.02;91.75
19112;BME280;9688;51.906;8.376;2023-01-31T00:42:19;101362.09;;;6.01;91.80
19112;BME280;9688;51.906;8.376;2023-01-31T00:45:07;101373.50;;;5.99;91.58
19112;BME280;9688;51.906;8.376;2023-01-31T00:47:53;101366.50;;;5.96;91.48
19112;BME280;9688;51.906;8.376;2023-01-31T00:50:39;101374.38;;;5.90;92.41
19112;BME280;9688;51.906;8.376;2023-01-31T00:53:24;101369.16;;;5.84;91.56
19112;BME280;9688;51.906;8.376;2023-01-31T00:56:12;101374.47;;;5.79;91.96
19112;BME280;9688;51.906;8.376;2023-01-31T00:58:58;101370.97;;;5.77;92.25
19112;BME280;9688;51.906;8.376;2023-01-31T01:01:45;101354.38;;;5.75;92.12
19112;BME280;9688;51.906;8.376;2023-01-31T01:04:30;101357.88;;;5.73;92.54
19112;BME280;9688;51.906;8.376;2023-01-31T01:07:16;101362.25;;;5.72;92.39
19112;BME280;9688;51.906;8.376;2023-01-31T01:10:05;101360.53;;;5.70;92.49
19112;BME280;9688;51.906;8.376;2023-01-31T01:12:51;101361.41;;;5.72;92.27
19112;BME280;9688;51.906;8.376;2023-01-31T01:15:38;101371.84;;;5.73;92.16
19112;BME280;9688;51.906;8.376;2023-01-31T01:18:25;101364.88;;;5.74;92.57
19112;BME280;9688;51.906;8.376;2023-01-31T01:21:14;101374.47;;;5.73;91.75
19112;BME280;9688;51.906;8.376;2023-01-31T01:24:00;101379.72;;;5.73;91.65
19112;BME280;9688;51.906;8.376;2023-01-31T01:26:46;101378.91;;;5.68;91.90
19112;BME280;9688;51.906;8.376;2023-01-31T01:29:32;101379.78;;;5.67;92.07
19112;BME280;9688;51.906;8.376;2023-01-31T01:32:18;101382.38;;;5.70;91.74
19112;BME280;9688;51.906;8.376;2023-01-31T01:35:06;101371.88;;;5.70;92.33
19112;BME280;9688;51.906;8.376;2023-01-31T01:37:52;101374.50;;;5.72;92.03
19112;BME280;9688;51.906;8.376;2023-01-31T01:40:38;101377.13;;;5.72;92.31
19112;BME280;9688;51.906;8.376;2023-01-31T01:43:38;101378.88;;;5.73;92.36
19112;BME280;9688;51.906;8.376;2023-01-31T01:46:27;101376.22;;;5.76;91.48
19112;BME280;9688;51.906;8.376;2023-01-31T01:49:19;101385.00;;;5.76;91.78
19112;BME280;9688;51.906;8.376;2023-01-31T01:52:09;101386.75;;;5.74;92.21
19112;BME280;9688;51.906;8.376;2023-01-31T01:54:58;101385.88;;;5.72;92.36
19112;BME280;9688;51.906;8.376;2023-01-31T01:57:46;101390.28;;;5.69;92.36
19112;BME280;9688;51.906;8.376;2023-01-31T02:00:34;101401.63;;;5.68;91.54
19112;BME280;9688;51.906;8.376;2023-01-31T02:03:21;101404.25;;;5.69;91.73
19112;BME280;9688;51.906;8.376;2023-01-31T02:06:07;101408.63;;;5.72;91.68
19112;BME280;9688;51.906;8.376;2023-01-31T02:08:54;101407.75;;;5.67;92.16
19112;BME280;9688;51.906;8.376;2023-01-31T02:11:39;101408.63;;;5.67;91.66
19112;BME280;9688;51.906;8.376;2023-01-31T02:14:25;101413.91;;;5.66;91.50
19112;BME280;9688;51.906;8.376;2023-01-31T02:17:12;101413.00;;;5.67;91.80
19112;BME280;9688;51.906;8.376;2023-01-31T02:20:09;101408.66;;;5.66;91.66
19112;BME280;9688;51.906;8.376;2023-01-31T02:23:21;101409.56;;;5.60;91.86
19112;BME280;9688;51.906;8.376;2023-01-31T02:26:43;101413.06;;;5.51;92.25
19112;BME280;9688;51.906;8.376;2023-01-31T02:29:49;101416.59;;;5.47;92.46
19112;BME280;9688;51.906;8.376;2023-01-31T02:32:49;101421.00;;;5.39;91.95
19112;BME280;9688;51.906;8.376;2023-01-31T02:35:47;101413.19;;;5.30;92.44
19112;BME280;9688;51.906;8.376;2023-01-31T02:38:44;101415.84;;;5.22;92.59
19112;BME280;9688;51.906;8.376;2023-01-31T02:41:39;101419.34;;;5.17;92.75
19112;BME280;9688;51.906;8.376;2023-01-31T02:44:31;101429.84;;;5.13;92.48
19112;BME280;9688;51.906;8.376;2023-01-31T02:47:56;101418.50;;;5.07;92.28
19112;BME280;9688;51.906;8.376;2023-01-31T02:50:49;101425.50;;;4.99;92.64
19112;BME280;9688;51.906;8.376;2023-01-31T02:53:43;101427.28;;;4.90;92.30
19112;BME280;9688;51.906;8.376;2023-01-31T02:56:31;101430.78;;;4.83;93.39
19112;BME280;9688;51.906;8.376;2023-01-31T02:59:19;101427.31;;;4.80;93.42
19112;BME280;9688;51.906;8.376;2023-01-31T03:02:08;101433.41;;;4.76;93.79
19112;BME280;9688;51.906;8.376;2023-01-31T03:04:56;101419.47;;;4.69;92.88
19112;BME280;9688;51.906;8.376;2023-01-31T03:07:43;101418.59;;;4.59;93.64
19112;BME280;9688;51.906;8.376;2023-01-31T03:10:49;101411.63;;;4.51;93.39
19112;BME280;9688;51.906;8.376;2023-01-31T03:13:45;101405.50;;;4.42;94.26
19112;BME280;9688;51.906;8.376;2023-01-31T03:16:39;101405.50;;;4.35;94.02
19112;BME280;9688;51.906;8.376;2023-01-31T03:19:49;101402.03;;;4.30;93.76
19112;BME280;9688;51.906;8.376;2023-01-31T03:22:44;101399.41;;;4.27;93.87
19112;BME280;9688;51.906;8.376;2023-01-31T03:25:34;101387.19;;;4.22;94.84
19112;BME280;9688;51.906;8.376;2023-01-31T03:28:26;101380.22;;;4.18;93.99
19112;BME280;9688;51.906;8.376;2023-01-31T03:31:16;101377.59;;;4.17;94.99
19112;BME280;9688;51.906;8.376;2023-01-31T03:34:06;101372.34;;;4.15;94.33
19112;BME280;9688;51.906;8.376;2023-01-31T03:36:57;101370.59;;;4.13;94.35
19112;BME280;9688;51.906;8.376;2023-01-31T03:39:54;101361.91;;;4.12;95.59
19112;BME280;9688;51.906;8.376;2023-01-31T03:42:44;101363.66;;;4.12;95.02
19112;BME280;9688;51.906;8.376;2023-01-31T03:45:35;101346.19;;;4.09;95.37
19112;BME280;9688;51.906;8.376;2023-01-31T03:48:25;101343.59;;;4.06;95.05
19112;BME280;9688;51.906;8.376;2023-01-31T03:51:17;101345.31;;;4.04;95.63
19112;BME280;9688;51.906;8.376;2023-01-31T03:54:06;101343.56;;;4.05;95.93
19112;BME280;9688;51.906;8.376;2023-01-31T03:56:55;101353.19;;;4.04;95.64
19112;BME280;9688;51.906;8.376;2023-01-31T03:59:44;101347.94;;;4.04;95.67
19112;BME280;9688;51.906;8.376;2023-01-31T04:02:33;101350.56;;;4.06;95.97
19112;BME280;9688;51.906;8.376;2023-01-31T04:05:21;101348.81;;;4.12;94.66
19112;BME280;9688;51.906;8.376;2023-01-31T04:08:08;101349.69;;;4.23;94.93
19112;BME280;9688;51.906;8.376;2023-01-31T04:10:56;101356.66;;;4.34;94.46
19112;BME280;9688;51.906;8.376;2023-01-31T04:13:43;101351.41;;;4.44;94.59
19112;BME280;9688;51.906;8.376;2023-01-31T04:16:29;101346.16;;;4.55;94.89
19112;BME280;9688;51.906;8.376;2023-01-31T04:19:14;101354.88;;;4.66;95.09
19112;BME280;9688;51.906;8.376;2023-01-31T04:22:00;101340.88;;;4.74;94.60
19112;BME280;9688;51.906;8.376;2023-01-31T04:24:46;101334.75;;;4.82;95.05
19112;BME280;9688;51.906;8.376;2023-01-31T04:27:32;101333.84;;;4.94;93.86
19112;BME280;9688;51.906;8.376;2023-01-31T04:30:19;101330.31;;;5.00;93.84
19112;BME280;9688;51.906;8.376;2023-01-31T04:33:04;101336.38;;;5.06;93.65
19112;BME280;9688;51.906;8.376;2023-01-31T04:35:50;101344.22;;;5.12;93.98
19112;BME280;9688;51.906;8.376;2023-01-31T04:38:36;101330.25;;;5.17;94.08
19112;BME280;9688;51.906;8.376;2023-01-31T04:41:21;101330.22;;;5.21;93.04
19112;BME280;9688;51.906;8.376;2023-01-31T04:44:06;101327.56;;;5.26;93.16
19112;BME280;9688;51.906;8.376;2023-01-31T04:46:53;101325.81;;;5.29;93.94
19112;BME280;9688;51.906;8.376;2023-01-31T04:49:38;101319.66;;;5.35;93.32
19112;BME280;9688;51.906;8.376;2023-01-31T04:52:24;101327.50;;;5.41;93.28
19112;BME280;9688;51.906;8.376;2023-01-31T04:55:10;101324.84;;;5.49;92.82
19112;BME280;9688;51.906;8.376;2023-01-31T04:57:56;101325.66;;;5.54;92.58
19112;BME280;9688;51.906;8.376;2023-01-31T05:00:41;101322.13;;;5.58;92.23
19112;BME280;9688;51.906;8.376;2023-01-31T05:03:31;101314.25;;;5.61;92.05
19112;BME280;9688;51.906;8.376;2023-01-31T05:06:20;101308.09;;;5.65;92.07
19112;BME280;9688;51.906;8.376;2023-01-31T05:09:07;101305.47;;;5.65;91.91
19112;BME280;9688;51.906;8.376;2023-01-31T05:11:54;101304.63;;;5.62;91.68
19112;BME280;9688;51.906;8.376;2023-01-31T05:14:40;101292.41;;;5.61;91.73
19112;BME280;9688;51.906;8.376;2023-01-31T05:17:25;101302.91;;;5.61;92.25
19112;BME280;9688;51.906;8.376;2023-01-31T05:20:16;101285.41;;;5.59;91.81
19112;BME280;9688;51.906;8.376;2023-01-31T05:23:01;101284.53;;;5.59;92.47
19112;BME280;9688;51.906;8.376;2023-01-31T05:25:48;101278.41;;;5.57;92.27
19112;BME280;9688;51.906;8.376;2023-01-31T05:28:34;101281.06;;;5.54;91.78
19112;BME280;9688;51.906;8.376;2023-01-31T05:31:20;101274.09;;;5.54;92.45
19112;BME280;9688;51.906;8.376;2023-01-31T05:34:05;101267.06;;;5.56;91.58
19112;BME280;9688;51.906;8.376;2023-01-31T05:36:53;101259.19;;;5.58;91.29
19112;BME280;9688;51.906;8.376;2023-01-31T05:39:39;101254.78;;;5.62;92.06
19112;BME280;9688;51.906;8.376;2023-01-31T05:42:24;101249.56;;;5.62;92.06
19112;BME280;9688;51.906;8.376;2023-01-31T05:45:11;101247.78;;;5.64;91.30
19112;BME280;9688;51.906;8.376;2023-01-31T05:47:59;101253.03;;;5.64;91.10
19112;BME280;9688;51.906;8.376;2023-01-31T05:50:45;101252.16;;;5.63;91.39
19112;BME280;9688;51.906;8.376;2023-01-31T05:53:31;101252.13;;;5.65;91.20
19112;BME280;9688;51.906;8.376;2023-01-31T05:56:17;101248.66;;;5.66;91.34
19112;BME280;9688;51.906;8.376;2023-01-31T05:59:03;101252.16;;;5.66;91.12
19112;BME280;9688;51.906;8.376;2023-01-31T06:01:51;101253.00;;;5.68;92.00
19112;BME280;9688;51.906;8.376;2023-01-31T06:04:37;101258.19;;;5.73;91.76
19112;BME280;9688;51.906;8.376;2023-01-31T06:07:22;101261.69;;;5.76;91.90
19112;BME280;9688;51.906;8.376;2023-01-31T06:10:10;101252.91;;;5.79;91.56
19112;BME280;9688;51.906;8.376;2023-01-31T06:12:58;101253.75;;;5.82;90.90
19112;BME280;9688;51.906;8.376;2023-01-31T06:15:44;101249.38;;;5.83;91.39
19112;BME280;9688;51.906;8.376;2023-01-31T06:18:30;101254.59;;;5.86;91.10
19112;BME280;9688;51.906;8.376;2023-01-31T06:21:15;101247.63;;;5.85;90.80
19112;BME280;9688;51.906;8.376;2023-01-31T06:24:01;101245.03;;;5.82;91.61
19112;BME280;9688;51.906;8.376;2023-01-31T06:26:48;101231.00;;;5.83;90.82
19112;BME280;9688;51.906;8.376;2023-01-31T06:29:34;101242.38;;;5.85;90.99
19112;BME280;9688;51.906;8.376;2023-01-31T06:32:20;101238.84;;;5.88;90.84
19112;BME280;9688;51.906;8.376;2023-01-31T06:35:06;101245.81;;;5.87;90.66
19112;BME280;9688;51.906;8.376;2023-01-31T06:37:54;101240.53;;;5.90;90.96
19112;BME280;9688;51.906;8.376;2023-01-31T06:40:41;101245.78;;;5.92;91.23
19112;BME280;9688;51.906;8.376;2023-01-31T06:43:29;101244.03;;;5.95;91.21
19112;BME280;9688;51.906;8.376;2023-01-31T06:46:14;101241.38;;;6.00;90.96
19112;BME280;9688;51.906;8.376;2023-01-31T06:49:01;101238.75;;;6.01;90.56
19112;BME280;9688;51.906;8.376;2023-01-31T06:51:47;101240.47;;;6.01;91.25
19112;BME280;9688;51.906;8.376;2023-01-31T06:54:34;101243.97;;;6.03;90.73
19112;BME280;9688;51.906;8.376;2023-01-31T06:57:21;101237.81;;;6.04;91.19
19112;BME280;9688;51.906;8.376;2023-01-31T07:00:09;101237.81;;;6.04;90.58
19112;BME280;9688;51.906;8.376;2023-01-31T07:02:55;101242.19;;;6.07;90.46
19112;BME280;9688;51.906;8.376;2023-01-31T07:05:41;101236.03;;;6.09;90.81
19112;BME280;9688;51.906;8.376;2023-01-31T07:08:29;101230.78;;;6.11;90.41
19112;BME280;9688;51.906;8.376;2023-01-31T07:11:14;101249.16;;;6.09;90.76
19112;BME280;9688;51.906;8.376;2023-01-31T07:14:00;101243.88;;;6.12;90.72
19112;BME280;9688;51.906;8.376;2023-01-31T07:16:46;101239.47;;;6.14;90.62
19112;BME280;9688;51.906;8.376;2023-01-31T07:19:32;101230.75;;;6.14;90.57
19112;BME280;9688;51.906;8.376;2023-01-31T07:22:19;101235.09;;;6.15;90.83
19112;BME280;9688;51.906;8.376;2023-01-31T07:25:08;101228.97;;;6.14;90.61
19112;BME280;9688;51.906;8.376;2023-01-31T07:27:55;101213.22;;;6.14;91.02
19112;BME280;9688;51.906;8.376;2023-01-31T07:30:41;101215.84;;;6.14;90.94
19112;BME280;9688;51.906;8.376;2023-01-31T07:33:32;101213.22;;;6.14;90.54
19112;BME280;9688;51.906;8.376;2023-01-31T07:36:19;101203.56;;;6.18;91.03
19112;BME280;9688;51.906;8.376;2023-01-31T07:39:10;101207.94;;;6.19;90.29
19112;BME280;9688;51.906;8.376;2023-01-31T07:41:57;101209.72;;;6.17;90.75
19112;BME280;9688;51.906;8.376;2023-01-31T07:44:44;101213.22;;;6.16;91.15
19112;BME280;9688;51.906;8.376;2023-01-31T07:47:33;101201.84;;;6.17;90.79
19112;BME280;9688;51.906;8.376;2023-01-31T07:50:21;101187.00;;;6.14;90.55
19112;BME280;9688;51.906;8.376;2023-01-31T07:53:07;101200.06;;;6.19;91.10
19112;BME280;9688;51.906;8.376;2023-01-31T07:55:52;101198.31;;;6.21;90.36
19112;BME280;9688;51.906;8.376;2023-01-31T07:58:38;101193.88;;;6.24;90.71
19112;BME280;9688;51.906;8.376;2023-01-31T08:01:27;101185.09;;;6.27;90.95
19112;BME280;9688;51.906;8.376;2023-01-31T08:04:33;101177.22;;;6.27;90.39
19112;BME280;9688;51.906;8.376;2023-01-31T08:07:22;101181.56;;;6.28;90.47
19112;BME280;9688;51.906;8.376;2023-01-31T08:10:09;101183.25;;;6.35;90.87
19112;BME280;9688;51.906;8.376;2023-01-31T08:12:56;101175.34;;;6.37;90.40
19112;BME280;9688;51.906;8.376;2023-01-31T08:15:43;101164.78;;;6.40;90.53
19112;BME280;9688;51.906;8.376;2023-01-31T08:18:30;101180.50;;;6.44;90.50
19112;BME280;9688;51.906;8.376;2023-01-31T08:21:15;101161.22;;;6.45;90.44
19112;BME280;9688;51.906;8.376;2023-01-31T08:24:08;101162.91;;;6.51;89.91
19112;BME280;9688;51.906;8.376;2023-01-31T08:26:54;101159.28;;;6.61;89.89
19112;BME280;9688;51.906;8.376;2023-01-31T08:29:40;101149.53;;;6.69;89.67
19112;BME280;9688;51.906;8.376;2023-01-31T08:32:25;101150.34;;;6.75;89.12
19112;BME280;9688;51.906;8.376;2023-01-31T08:35:11;101129.31;;;6.75;89.14
19112;BME280;9688;51.906;8.376;2023-01-31T08:37:56;101140.75;;;6.74;89.33
19112;BME280;9688;51.906;8.376;2023-01-31T08:40:45;101149.53;;;6.71;89.20
19112;BME280;9688;51.906;8.376;2023-01-31T08:43:36;101142.50;;;6.70;88.93
19112;BME280;9688;51.906;8.376;2023-01-31T08:46:24;101146.91;;;6.69;89.32
19112;BME280;9688;51.906;8.376;2023-01-31T08:49:09;101147.78;;;6.70;89.04
19112;BME280;9688;51.906;8.376;2023-01-31T08:51:56;101134.69;;;6.67;89.32
19112;BME280;9688;51.906;8.376;2023-01-31T08:54:41;101141.69;;;6.66;89.34
19112;BME280;9688;51.906;8.376;2023-01-31T08:57:28;101144.31;;;6.68;89.54
19112;BME280;9688;51.906;8.376;2023-01-31T09:00:16;101141.69;;;6.68;89.35
19112;BME280;9688;51.906;8.376;2023-01-31T09:03:02;101118.06;;;6.65;89.71
19112;BME280;9688;51.906;8.376;2023-01-31T09:05:48;101128.63;;;6.62;90.34
19112;BME280;9688;51.906;8.376;2023-01-31T09:08:34;101113.81;;;6.56;90.31
19112;BME280;9688;51.906;8.376;2023-01-31T09:11:19;101119.16;;;6.50;90.72
19112;BME280;9688;51.906;8.376;2023-01-31T09:14:06;101115.72;;;6.46;91.12
19112;BME280;9688;51.906;8.376;2023-01-31T09:16:52;101125.41;;;6.41;91.63
19112;BME280;9688;51.906;8.376;2023-01-31T09:19:38;101121.91;;;6.39;91.55
19112;BME280;9688;51.906;8.376;2023-01-31T09:22:23;101121.09;;;6.34;91.80
19112;BME280;9688;51.906;8.376;2023-01-31T09:25:10;101118.56;;;6.30;92.68
19112;BME280;9688;51.906;8.376;2023-01-31T09:27:56;101108.94;;;6.29;92.99
19112;BME280;9688;51.906;8.376;2023-01-31T09:30:44;101092.34;;;6.25;93.24
19112;BME280;9688;51.906;8.376;2023-01-31T09:33:31;101080.19;;;6.21;93.51
19112;BME280;9688;51.906;8.376;2023-01-31T09:36:22;101070.63;;;6.15;93.34
19112;BME280;9688;51.906;8.376;2023-01-31T09:39:10;101070.59;;;6.17;93.88
19112;BME280;9688;51.906;8.376;2023-01-31T09:41:59;101074.94;;;6.21;93.64
19112;BME280;9688;51.906;8.376;2023-01-31T09:44:56;101069.56;;;6.29;93.43
19112;BME280;9688;51.906;8.376;2023-01-31T09:47:49;101074.75;;;6.32;93.72
19112;BME280;9688;51.906;8.376;2023-01-31T09:50:40;101078.28;;;6.32;93.54
19112;BME280;9688;51.906;8.376;2023-01-31T09:53:29;101060.75;;;6.33;94.00
19112;BME280;9688;51.906;8.376;2023-01-31T09:56:22;101039.72;;;6.34;94.07
19112;BME280;9688;51.906;8.376;2023-01-31T09:59:13;101058.13;;;6.31;94.54
19112;BME280;9688;51.906;8.376;2023-01-31T10:02:15;101059.94;;;6.26;94.59
19112;BME280;9688;51.906;8.376;2023-01-31T10:05:15;101050.41;;;6.20;94.91
19112;BME280;9688;51.906;8.376;2023-01-31T10:08:10;101064.38;;;6.22;95.20
19112;BME280;9688;51.906;8.376;2023-01-31T10:10:59;101061.63;;;6.32;94.73
19112;BME280;9688;51.906;8.376;2023-01-31T10:13:48;101054.50;;;6.41;94.83
19112;BME280;9688;51.906;8.376;2023-01-31T10:16:41;101059.69;;;6.46;94.87
19112;BME280;9688;51.906;8.376;2023-01-31T10:19:35;101048.28;;;6.48;94.98
19112;BME280;9688;51.906;8.376;2023-01-31T10:22:31;101043.09;;;6.44;94.99
19112;BME280;9688;51.906;8.376;2023-01-31T10:25:25;101050.16;;;6.37;94.79
19112;BME280;9688;51.906;8.376;2023-01-31T10:28:15;101031.88;;;6.31;95.37
19112;BME280;9688;51.906;8.376;2023-01-31T10:31:11;101046.78;;;6.32;95.68
19112;BME280;9688;51.906;8.376;2023-01-31T10:34:04;101038.00;;;6.32;95.15
19112;BME280;9688;51.906;8.376;2023-01-31T10:36:58;101025.72;;;6.35;95.90
19112;BME280;9688;51.906;8.376;2023-01-31T10:39:49;101044.06;;;6.38;95.55
19112;BME280;9688;51.906;8.376;2023-01-31T10:42:38;101032.63;;;6.41;95.17
19112;BME280;9688;51.906;8.376;2023-01-31T10:45:26;101019.47;;;6.42;95.46
19112;BME280;9688;51.906;8.376;2023-01-31T10:48:16;101018.56;;;6.45;95.80
19112;BME280;9688;51.906;8.376;2023-01-31T10:51:09;101001.88;;;6.47;95.94
19112;BME280;9688;51.906;8.376;2023-01-31T10:54:17;101015.88;;;6.48;95.42
19112;BME280;9688;51.906;8.376;2023-01-31T10:57:13;100994.59;;;6.65;95.32
19112;BME280;9688;51.906;8.376;2023-01-31T11:00:00;100989.09;;;6.80;94.58
19112;BME280;9688;51.906;8.376;2023-01-31T11:02:52;100987.09;;;6.95;94.44
19112;BME280;9688;51.906;8.376;2023-01-31T11:05:44;100988.75;;;7.00;94.00
19112;BME280;9688;51.906;8.376;2023-01-31T11:08:34;100979.88;;;7.06;93.98
19112;BME280;9688;51.906;8.376;2023-01-31T11:11:22;100974.50;;;7.13;93.52
19112;BME280;9688;51.906;8.376;2023-01-31T11:14:17;100971.88;;;7.12;93.11
19112;BME280;9688;51.906;8.376;2023-01-31T11:17:08;100968.44;;;7.10;93.60
19112;BME280;9688;51.906;8.376;2023-01-31T11:19:58;100945.72;;;7.06;93.81
19112;BME280;9688;51.906;8.376;2023-01-31T11:22:45;100969.50;;;7.00;93.81
19112;BME280;9688;51.906;8.376;2023-01-31T11:25:33;100973.03;;;6.97;93.96
19112;BME280;9688;51.906;8.376;2023-01-31T11:28:26;100952.91;;;6.96;93.83
19112;BME280;9688;51.906;8.376;2023-01-31T11:31:21;100959.06;;;6.95;93.71
19112;BME280;9688;51.906;8.376;2023-01-31T11:34:19;100944.97;;;6.99;93.71
19112;BME280;9688;51.906;8.376;2023-01-31T11:37:13;100921.22;;;7.04;93.54
19112;BME280;9688;51.906;8.376;2023-01-31T11:40:01;100926.53;;;7.02;93.59
19112;BME280;9688;51.906;8.376;2023-01-31T11:42:51;100931.72;;;7.04;93.58
19112;BME280;9688;51.906;8.376;2023-01-31T11:45:43;100926.44;;;7.05;93.15
19112;BME280;9688;51.906;8.376;2023-01-31T11:48:39;100936.09;;;7.05;93.29
19112;BME280;9688;51.906;8.376;2023-01-31T11:51:29;100934.25;;;7.10;93.85
19112;BME280;9688;51.906;8.376;2023-01-31T11:54:19;100927.13;;;7.17;93.23
19112;BME280;9688;51.906;8.376;2023-01-31T11:57:13;100935.81;;;7.20;93.40
19112;BME280;9688;51.906;8.376;2023-01-31T12:00:02;100929.59;;;7.24;93.16
19112;BME280;9688;51.906;8.376;2023-01-31T12:02:57;100926.91;;;7.27;93.20
19112;BME280;9688;51.906;8.376;2023-01-31T12:05:49;100925.06;;;7.31;92.91
19112;BME280;9688;51.906;8.376;2023-01-31T12:08:37;100924.22;;;7.30;92.87
19112;BME280;9688;51.906;8.376;2023-01-31T12:11:29;100926.00;;;7.28;93.13
19112;BME280;9688;51.906;8.376;2023-01-31T12:14:22;100925.25;;;7.22;93.14
19112;BME280;9688;51.906;8.376;2023-01-31T12:17:12;100906.06;;;7.18;93.86
19112;BME280;9688;51.906;8.376;2023-01-31T12:20:13;100896.47;;;7.15;93.43
19112;BME280;9688;51.906;8.376;2023-01-31T12:23:20;100882.63;;;7.07;93.75
19112;BME280;9688;51.906;8.376;2023-01-31T12:26:16;100884.41;;;7.05;94.25
19112;BME280;9688;51.906;8.376;2023-01-31T12:29:23;100886.19;;;7.03;94.00
19112;BME280;9688;51.906;8.376;2023-01-31T12:32:41;100863.44;;;7.02;94.23
19112;BME280;9688;51.906;8.376;2023-01-31T12:35:40;100858.13;;;7.04;94.17
19112;BME280;9688;51.906;8.376;2023-01-31T12:41:55;100857.28;;;7.03;94.11
19112;BME280;9688;51.906;8.376;2023-01-31T12:44:47;100845.84;;;7.06;94.07
19112;BME280;9688;51.906;8.376;2023-01-31T12:47:51;100861.59;;;7.06;94.18
19112;BME280;9688;51.906;8.376;2023-01-31T12:50:43;100857.19;;;7.08;94.27
19112;BME280;9688;51.906;8.376;2023-01-31T12:53:49;100862.56;;;7.02;94.01
19112;BME280;9688;51.906;8.376;2023-01-31T12:56:49;100859.97;;;7.00;94.71
19112;BME280;9688;51.906;8.376;2023-01-31T12:59:46;100866.16;;;6.98;95.07
19112;BME280;9688;51.906;8.376;2023-01-31T13:02:40;100863.56;;;6.96;95.14
19112;BME280;9688;51.906;8.376;2023-01-31T13:05:30;100858.41;;;6.90;95.58
19112;BME280;9688;51.906;8.376;2023-01-31T13:08:21;100860.22;;;6.86;96.26
19112;BME280;9688;51.906;8.376;2023-01-31T13:11:13;100864.69;;;6.81;97.00
19112;BME280;9688;51.906;8.376;2023-01-31T13:14:07;100870.88;;;6.79;96.92
19112;BME280;9688;51.906;8.376;2023-01-31T13:17:01;100877.94;;;6.77;97.44
19112;BME280;9688;51.906;8.376;2023-01-31T13:19:51;100881.44;;;6.77;97.51
19112;BME280;9688;51.906;8.376;2023-01-31T13:22:45;100882.34;;;6.75;97.82
19112;BME280;9688;51.906;8.376;2023-01-31T13:25:38;100872.75;;;6.74;98.16
19112;BME280;9688;51.906;8.376;2023-01-31T13:28:30;100871.84;;;6.75;98.64
19112;BME280;9688;51.906;8.376;2023-01-31T13:31:23;100863.97;;;6.73;98.55
19112;BME280;9688;51.906;8.376;2023-01-31T13:34:15;100860.47;;;6.74;99.01
19112;BME280;9688;51.906;8.376;2023-01-31T13:37:04;100861.34;;;6.73;98.86
19112;BME280;9688;51.906;8.376;2023-01-31T13:39:54;100864.88;;;6.74;99.61
19112;BME280;9688;51.906;8.376;2023-01-31T13:42:42;100854.31;;;6.75;99.55
19112;BME280;9688;51.906;8.376;2023-01-31T13:45:32;100861.34;;;6.75;100.00
19112;BME280;9688;51.906;8.376;2023-01-31T13:48:25;100873.69;;;6.71;100.00
19112;BME280;9688;51.906;8.376;2023-01-31T13:51:16;100855.25;;;6.73;100.00
19112;BME280;9688;51.906;8.376;2023-01-31T13:54:07;100842.03;;;6.77;100.00
19112;BME280;9688;51.906;8.376;2023-01-31T13:56:59;100841.13;;;6.78;100.00
19112;BME280;9688;51.906;8.376;2023-01-31T13:59:51;100834.16;;;6.77;100.00
19112;BME280;9688;51.906;8.376;2023-01-31T14:02:59;100827.09;;;6.79;100.00
19112;BME280;9688;51.906;8.376;2023-01-31T14:05:57;100828.69;;;6.88;100.00
19112;BME280;9688;51.906;8.376;2023-01-31T14:08:56;100820.69;;;6.92;100.00
19112;BME280;9688;51.906;8.376;2023-01-31T14:11:43;100836.44;;;6.94;100.00
19112;BME280;9688;51.906;8.376;2023-01-31T14:14:37;100834.72;;;6.93;100.00
19112;BME280;9688;51.906;8.376;2023-01-31T14:20:49;100826.72;;;6.99;100.00
19112;BME280;9688;51.906;8.376;2023-01-31T14:23:43;100828.41;;;7.02;100.00
19112;BME280;9688;51.906;8.376;2023-01-31T14:26:49;100833.59;;;7.05;100.00
19112;BME280;9688;51.906;8.376;2023-01-31T14:29:41;100820.41;;;7.06;100.00
19112;BME280;9688;51.906;8.376;2023-01-31T14:32:33;100822.97;;;7.09;100.00
19112;BME280;9688;51.906;8.376;2023-01-31T14:35:29;100840.44;;;7.13;100.00
19112;BME280;9688;51.906;8.376;2023-01-31T14:38:26;100824.59;;;7.17;100.00
19112;BME280;9688;51.906;8.376;2023-01-31T14:41:26;100832.44;;;7.18;100.00
19112;BME280;9688;51.906;8.376;2023-01-31T14:44:20;100817.50;;;7.20;100.00
19112;BME280;9688;51.906;8.376;2023-01-31T14:47:24;100834.09;;;7.22;100.00
19112;BME280;9688;51.906;8.376;2023-01-31T14:50:28;100836.72;;;7.24;100.00
19112;BME280;9688;51.906;8.376;2023-01-31T14:53:31;100841.97;;;7.24;100.00
19112;BME280;9688;51.906;8.376;2023-01-31T14:56:26;100840.13;;;7.29;100.00
19112;BME280;9688;51.906;8.376;2023-01-31T14:59:25;100856.63;;;7.34;100.00
19112;BME280;9688;51.906;8.376;2023-01-31T15:05:47;100853.06;;;7.38;100.00
19112;BME280;9688;51.906;8.376;2023-01-31T15:08:40;100852.13;;;7.41;100.00
19112;BME280;9688;51.906;8.376;2023-01-31T15:11:38;100849.44;;;7.44;100.00
19112;BME280;9688;51.906;8.376;2023-01-31T15:14:29;100843.19;;;7.48;100.00
19112;BME280;9688;51.906;8.376;2023-01-31T15:17:20;100849.22;;;7.53;100.00
19112;BME280;9688;51.906;8.376;2023-01-31T15:20:16;100844.81;;;7.53;100.00
19112;BME280;9688;51.906;8.376;2023-01-31T15:23:06;100836.00;;;7.56;100.00